createdAt,value
2019-03-29T00:00:52.344Z,0
2019-03-29T00:01:53.034Z,0
2019-03-29T00:02:53.726Z,0
2019-03-29T00:03:54.411Z,0
2019-03-29T00:04:55.094Z,0
2019-03-29T00:05:55.783Z,0
2019-03-29T00:06:56.468Z,0
2019-03-29T00:07:57.153Z,0
2019-03-29T00:08:57.839Z,0
2019-03-29T00:09:58.522Z,0
2019-03-29T00:10:59.225Z,0
2019-03-29T00:11:59.900Z,0
2019-03-29T00:13:00.588Z,0
2019-03-29T00:14:01.272Z,0
2019-03-29T00:15:01.959Z,0
2019-03-29T00:16:02.647Z,0
2019-03-29T00:17:03.335Z,0
2019-03-29T00:18:04.103Z,0
2019-03-29T00:19:04.704Z,0
2019-03-29T00:20:06.371Z,0
2019-03-29T00:21:06.076Z,0
2019-03-29T00:22:06.812Z,0
2019-03-29T00:23:07.493Z,0
2019-03-29T00:24:08.185Z,0
2019-03-29T00:25:08.865Z,0
2019-03-29T00:26:09.552Z,0
2019-03-29T00:27:10.235Z,0
2019-03-29T00:28:11.081Z,0
2019-03-29T00:29:11.603Z,0
2019-03-29T00:30:12.283Z,0
2019-03-29T00:31:13.254Z,0
2019-03-29T00:32:13.656Z,0
2019-03-29T00:33:14.383Z,0
2019-03-29T00:34:15.936Z,0
2019-03-29T00:35:15.730Z,0
2019-03-29T00:36:16.405Z,0
2019-03-29T00:37:17.318Z,0
2019-03-29T00:38:17.770Z,0
2019-03-29T00:39:18.462Z,0
2019-03-29T00:40:19.237Z,0
2019-03-29T00:41:19.822Z,0
2019-03-29T00:42:20.506Z,0
2019-03-29T00:43:21.289Z,0
2019-03-29T00:44:21.879Z,0
2019-03-29T00:45:22.561Z,0
2019-03-29T00:46:23.399Z,0
2019-03-29T00:47:24.145Z,0
2019-03-29T00:48:24.813Z,0
2019-03-29T00:49:25.498Z,0
2019-03-29T00:50:26.185Z,0
2019-03-29T00:51:26.871Z,0
2019-03-29T00:52:27.562Z,0
2019-03-29T00:53:28.240Z,0
2019-03-29T00:54:28.926Z,0
2019-03-29T00:55:29.612Z,0
2019-03-29T00:56:30.295Z,0
2019-03-29T00:57:31.022Z,0
2019-03-29T00:58:31.661Z,0
2019-03-29T00:59:32.345Z,0
2019-03-29T01:00:33.719Z,0
2019-03-29T01:01:33.711Z,0
2019-03-29T01:02:34.403Z,0
2019-03-29T01:03:35.079Z,0
2019-03-29T01:04:35.768Z,0
2019-03-29T01:05:36.449Z,0
2019-03-29T01:06:37.134Z,0
2019-03-29T01:07:37.820Z,0
2019-03-29T01:08:38.510Z,0
2019-03-29T01:09:39.196Z,0
2019-03-29T01:10:39.883Z,0
2019-03-29T01:11:41.086Z,0
2019-03-29T01:12:41.263Z,0
2019-03-29T01:13:41.932Z,0
2019-03-29T01:14:42.999Z,0
2019-03-29T01:15:43.296Z,0
2019-03-29T01:16:43.981Z,0
2019-03-29T01:17:45.745Z,0
2019-03-29T01:18:45.345Z,0
2019-03-29T01:19:46.029Z,0
2019-03-29T01:20:47.965Z,0
2019-03-29T01:21:47.399Z,0
2019-03-29T01:22:48.083Z,0
2019-03-29T01:23:49.285Z,0
2019-03-29T01:24:49.455Z,0
2019-03-29T01:25:50.134Z,0
2019-03-29T01:26:50.817Z,0
2019-03-29T01:27:51.507Z,0
2019-03-29T01:28:52.189Z,0
2019-03-29T01:29:52.878Z,0
2019-03-29T01:30:53.557Z,0
2019-03-29T01:31:54.243Z,0
2019-03-29T01:32:54.928Z,0
2019-03-29T01:33:55.614Z,0
2019-03-29T01:34:56.316Z,0
2019-03-29T01:35:56.980Z,0
2019-03-29T01:36:57.665Z,0
2019-03-29T01:37:58.353Z,0
2019-03-29T01:38:59.034Z,0
2019-03-29T01:39:59.718Z,0
2019-03-29T01:41:01.011Z,0
2019-03-29T01:42:01.054Z,0
2019-03-29T01:43:01.741Z,0
2019-03-29T01:44:02.419Z,0
2019-03-29T01:45:03.106Z,0
2019-03-29T01:46:03.791Z,0
2019-03-29T01:47:04.478Z,0
2019-03-29T01:48:05.167Z,0
2019-03-29T01:49:05.849Z,0
2019-03-29T01:50:07.991Z,0
2019-03-29T01:51:07.209Z,0
2019-03-29T01:52:07.896Z,0
2019-03-29T01:53:08.582Z,0
2019-03-29T01:54:09.263Z,0
2019-03-29T01:55:09.951Z,0
2019-03-29T01:56:10.637Z,0
2019-03-29T01:57:11.318Z,0
2019-03-29T01:58:12.003Z,0
2019-03-29T01:59:12.688Z,0
2019-03-29T02:00:13.408Z,0
2019-03-29T02:01:14.102Z,0
2019-03-29T02:02:14.781Z,0
2019-03-29T02:03:15.467Z,0
2019-03-29T02:04:16.152Z,0
2019-03-29T02:05:16.834Z,0
2019-03-29T02:06:17.520Z,0
2019-03-29T02:07:18.207Z,0
2019-03-29T02:08:18.894Z,0
2019-03-29T02:09:19.582Z,0
2019-03-29T02:10:20.262Z,0
2019-03-29T02:11:20.947Z,0
2019-03-29T02:12:21.633Z,0
2019-03-29T02:13:22.315Z,0
2019-03-29T02:14:23.013Z,0
2019-03-29T02:15:23.681Z,0
2019-03-29T02:16:24.365Z,0
2019-03-29T02:17:25.047Z,0
2019-03-29T02:18:25.729Z,0
2019-03-29T02:19:26.421Z,0
2019-03-29T02:20:27.103Z,0
2019-03-29T02:21:27.786Z,0
2019-03-29T02:22:28.469Z,0
2019-03-29T02:23:29.218Z,0
2019-03-29T02:24:29.829Z,0
2019-03-29T02:25:30.514Z,0
2019-03-29T02:26:31.197Z,0
2019-03-29T02:27:31.882Z,0
2019-03-29T02:28:32.574Z,0
2019-03-29T02:29:33.255Z,0
2019-03-29T02:30:33.940Z,0
2019-03-29T02:31:34.620Z,0
2019-03-29T02:32:35.302Z,0
2019-03-29T02:33:35.987Z,0
2019-03-29T02:34:36.664Z,0
2019-03-29T02:35:38.447Z,0
2019-03-29T02:36:38.037Z,0
2019-03-29T02:37:38.715Z,0
2019-03-29T02:38:54.302Z,0
2019-03-29T02:39:40.077Z,0
2019-03-29T02:40:40.765Z,0
2019-03-29T02:41:41.419Z,0
2019-03-29T02:42:42.947Z,0
2019-03-29T02:43:42.783Z,0
2019-03-29T02:44:43.464Z,0
2019-03-29T02:45:44.152Z,0
2019-03-29T02:46:44.834Z,0
2019-03-29T02:47:45.508Z,0
2019-03-29T02:48:46.198Z,0
2019-03-29T02:49:46.873Z,0
2019-03-29T02:50:47.563Z,0
2019-03-29T02:51:48.236Z,0
2019-03-29T02:52:48.921Z,0
2019-03-29T02:53:49.598Z,0
2019-03-29T02:54:50.285Z,0
2019-03-29T02:55:50.972Z,0
2019-03-29T02:56:51.647Z,0
2019-03-29T02:57:52.329Z,0
2019-03-29T02:58:53.009Z,0
2019-03-29T02:59:53.697Z,0
2019-03-29T03:00:54.373Z,0
2019-03-29T03:01:55.062Z,0
2019-03-29T03:02:55.744Z,0
2019-03-29T03:03:56.430Z,0
2019-03-29T03:04:57.128Z,0
2019-03-29T03:05:57.796Z,0
2019-03-29T03:06:58.481Z,0
2019-03-29T03:07:59.164Z,0
2019-03-29T03:09:13.374Z,0
2019-03-29T03:10:00.604Z,0
2019-03-29T03:11:01.221Z,0
2019-03-29T03:12:01.904Z,0
2019-03-29T03:13:02.592Z,0
2019-03-29T03:14:03.273Z,0
2019-03-29T03:15:03.948Z,0
2019-03-29T03:16:04.634Z,0
2019-03-29T03:17:05.322Z,0
2019-03-29T03:18:06.006Z,0
2019-03-29T03:19:06.689Z,0
2019-03-29T03:20:07.375Z,0
2019-03-29T03:21:08.107Z,0
2019-03-29T03:22:08.829Z,0
2019-03-29T03:23:09.417Z,0
2019-03-29T03:24:10.119Z,0
2019-03-29T03:25:10.792Z,0
2019-03-29T03:26:11.486Z,0
2019-03-29T03:27:12.153Z,0
2019-03-29T03:28:12.844Z,0
2019-03-29T03:29:13.535Z,0
2019-03-29T03:30:14.210Z,0
2019-03-29T03:31:14.931Z,0
2019-03-29T03:32:15.577Z,0
2019-03-29T03:33:16.260Z,0
2019-03-29T03:34:16.966Z,0
2019-03-29T03:35:17.666Z,0
2019-03-29T03:36:18.305Z,0
2019-03-29T03:37:18.961Z,0
2019-03-29T03:38:19.641Z,0
2019-03-29T03:39:31.677Z,0
2019-03-29T03:40:21.004Z,0
2019-03-29T03:41:21.677Z,0
2019-03-29T03:42:22.367Z,0
2019-03-29T03:43:23.037Z,0
2019-03-29T03:44:23.726Z,0
2019-03-29T03:45:24.407Z,0
2019-03-29T03:46:25.087Z,0
2019-03-29T03:47:25.776Z,0
2019-03-29T03:48:26.455Z,0
2019-03-29T03:49:27.103Z,0
2019-03-29T03:50:27.792Z,0
2019-03-29T03:51:28.467Z,0
2019-03-29T03:52:29.145Z,0
2019-03-29T03:53:29.833Z,0
2019-03-29T03:54:30.509Z,0
2019-03-29T03:55:31.192Z,0
2019-03-29T03:56:31.876Z,0
2019-03-29T03:57:32.558Z,0
2019-03-29T03:58:33.246Z,0
2019-03-29T03:59:33.932Z,0
2019-03-29T04:00:34.610Z,0
2019-03-29T04:01:35.293Z,0
2019-03-29T04:02:35.979Z,0
2019-03-29T04:03:36.661Z,0
2019-03-29T04:04:37.799Z,0
2019-03-29T04:05:38.024Z,0
2019-03-29T04:06:38.699Z,0
2019-03-29T04:07:39.387Z,0
2019-03-29T04:08:40.081Z,0
2019-03-29T04:09:49.237Z,0
2019-03-29T04:10:42.324Z,0
2019-03-29T04:11:42.121Z,0
2019-03-29T04:12:42.797Z,0
2019-03-29T04:13:43.487Z,0
2019-03-29T04:14:44.160Z,0
2019-03-29T04:15:44.859Z,0
2019-03-29T04:16:45.522Z,0
2019-03-29T04:17:46.212Z,0
2019-03-29T04:18:46.901Z,0
2019-03-29T04:19:47.581Z,0
2019-03-29T04:20:48.265Z,0
2019-03-29T04:21:48.951Z,0
2019-03-29T04:22:49.640Z,0
2019-03-29T04:23:50.311Z,0
2019-03-29T04:24:50.996Z,0
2019-03-29T04:25:51.658Z,0
2019-03-29T04:26:52.332Z,0
2019-03-29T04:27:53.104Z,0
2019-03-29T04:29:04.223Z,0
2019-03-29T04:29:55.353Z,0
2019-03-29T04:30:56.055Z,0
2019-03-29T04:31:56.715Z,0
2019-03-29T04:32:57.404Z,0
2019-03-29T04:33:58.089Z,0
2019-03-29T04:34:58.791Z,4
2019-03-29T04:35:59.458Z,4
2019-03-29T04:37:00.145Z,0
2019-03-29T04:38:00.820Z,4
2019-03-29T04:39:01.500Z,4
2019-03-29T04:40:07.814Z,4
2019-03-29T04:41:02.865Z,8
2019-03-29T04:42:03.522Z,8
2019-03-29T04:43:04.196Z,8
2019-03-29T04:44:04.890Z,12
2019-03-29T04:45:05.563Z,16
2019-03-29T04:46:06.250Z,16
2019-03-29T04:47:06.894Z,20
2019-03-29T04:48:07.596Z,24
2019-03-29T04:49:08.251Z,28
2019-03-29T04:50:08.984Z,32
2019-03-29T04:51:09.606Z,40
2019-03-29T04:52:10.288Z,48
2019-03-29T04:53:10.971Z,56
2019-03-29T04:54:11.736Z,64
2019-03-29T04:55:12.352Z,76
2019-03-29T04:56:13.016Z,88
2019-03-29T04:57:13.701Z,104
2019-03-29T04:58:14.394Z,120
2019-03-29T04:59:15.073Z,136
2019-03-29T05:00:15.764Z,152
2019-03-29T05:01:17.466Z,172
2019-03-29T05:02:17.121Z,192
2019-03-29T05:03:17.863Z,220
2019-03-29T05:04:18.481Z,244
2019-03-29T05:05:19.170Z,272
2019-03-29T05:06:19.854Z,300
2019-03-29T05:07:20.545Z,332
2019-03-29T05:08:21.195Z,364
2019-03-29T05:09:21.884Z,400
2019-03-29T05:10:22.576Z,436
2019-03-29T05:11:23.280Z,476
2019-03-29T05:12:23.962Z,516
2019-03-29T05:13:24.648Z,556
2019-03-29T05:14:25.331Z,600
2019-03-29T05:15:26.019Z,644
2019-03-29T05:16:26.709Z,688
2019-03-29T05:17:27.402Z,736
2019-03-29T05:18:28.073Z,784
2019-03-29T05:19:28.756Z,836
2019-03-29T05:20:29.440Z,888
2019-03-29T05:21:30.123Z,944
2019-03-29T05:22:30.809Z,1000
2019-03-29T05:23:31.497Z,1060
2019-03-29T05:24:32.201Z,1112
2019-03-29T05:25:32.887Z,1168
2019-03-29T05:26:33.572Z,1228
2019-03-29T05:27:34.259Z,1288
2019-03-29T05:28:34.943Z,1348
2019-03-29T05:29:35.650Z,1404
2019-03-29T05:30:36.340Z,1464
2019-03-29T05:31:37.027Z,1528
2019-03-29T05:32:37.716Z,1592
2019-03-29T05:33:38.399Z,1652
2019-03-29T05:34:39.088Z,1712
2019-03-29T05:35:39.773Z,1768
2019-03-29T05:36:40.462Z,1832
2019-03-29T05:37:41.143Z,1896
2019-03-29T05:38:41.826Z,1956
2019-03-29T05:39:42.520Z,2016
2019-03-29T05:40:43.213Z,2072
2019-03-29T05:41:43.896Z,2136
2019-03-29T05:42:44.594Z,2196
2019-03-29T05:43:45.276Z,2264
2019-03-29T05:44:45.960Z,2324
2019-03-29T05:45:46.669Z,2384
2019-03-29T05:46:47.343Z,2444
2019-03-29T05:47:48.035Z,2504
2019-03-29T05:48:48.720Z,2560
2019-03-29T05:49:49.408Z,2620
2019-03-29T05:50:50.108Z,2676
2019-03-29T05:51:50.794Z,2728
2019-03-29T05:52:51.475Z,2784
2019-03-29T05:53:52.162Z,2836
2019-03-29T05:54:52.847Z,2888
2019-03-29T05:55:53.545Z,2936
2019-03-29T05:56:54.238Z,2996
2019-03-29T05:57:54.928Z,3048
2019-03-29T05:58:55.623Z,3116
2019-03-29T05:59:56.317Z,3184
2019-03-29T06:00:57.000Z,3248
2019-03-29T06:01:57.688Z,3312
2019-03-29T06:02:58.342Z,3356
2019-03-29T06:03:59.032Z,3420
2019-03-29T06:04:59.713Z,3500
2019-03-29T06:06:00.413Z,3528
2019-03-29T06:07:01.099Z,3556
2019-03-29T06:08:01.784Z,3616
2019-03-29T06:09:02.494Z,3676
2019-03-29T06:10:03.167Z,3724
2019-03-29T06:11:03.847Z,3780
2019-03-29T06:12:04.538Z,3844
2019-03-29T06:13:05.268Z,3904
2019-03-29T06:14:05.906Z,3972
2019-03-29T06:15:06.600Z,4020
2019-03-29T06:16:07.314Z,4052
2019-03-29T06:17:07.972Z,4100
2019-03-29T06:18:08.657Z,4136
2019-03-29T06:19:09.364Z,4180
2019-03-29T06:20:10.044Z,4244
2019-03-29T06:21:10.728Z,4312
2019-03-29T06:22:11.410Z,4360
2019-03-29T06:23:12.098Z,4404
2019-03-29T06:24:12.786Z,4444
2019-03-29T06:25:13.477Z,4492
2019-03-29T06:26:14.135Z,4528
2019-03-29T06:27:14.817Z,4552
2019-03-29T06:28:15.504Z,4608
2019-03-29T06:29:16.192Z,4648
2019-03-29T06:30:16.877Z,4696
2019-03-29T06:31:17.577Z,4732
2019-03-29T06:32:18.263Z,4780
2019-03-29T06:33:18.951Z,4836
2019-03-29T06:34:19.636Z,4888
2019-03-29T06:35:20.323Z,4956
2019-03-29T06:36:21.018Z,4992
2019-03-29T06:37:21.704Z,5040
2019-03-29T06:38:22.398Z,5076
2019-03-29T06:39:23.086Z,5120
2019-03-29T06:40:23.775Z,5164
2019-03-29T06:41:24.452Z,5208
2019-03-29T06:42:25.144Z,5728
2019-03-29T06:43:25.826Z,5648
2019-03-29T06:44:26.509Z,5584
2019-03-29T06:45:27.203Z,5420
2019-03-29T06:46:27.893Z,5360
2019-03-29T06:47:28.582Z,5564
2019-03-29T06:48:29.265Z,5456
2019-03-29T06:49:29.958Z,5468
2019-03-29T06:50:30.662Z,5676
2019-03-29T06:51:31.333Z,6288
2019-03-29T06:52:32.030Z,6164
2019-03-29T06:53:32.714Z,5684
2019-03-29T06:54:33.405Z,5700
2019-03-29T06:55:34.082Z,5740
2019-03-29T06:56:34.773Z,5776
2019-03-29T06:57:35.458Z,5812
2019-03-29T06:58:36.150Z,5844
2019-03-29T06:59:36.840Z,5872
2019-03-29T07:00:37.528Z,5912
2019-03-29T07:01:38.225Z,5944
2019-03-29T07:02:38.907Z,5976
2019-03-29T07:03:39.595Z,6016
2019-03-29T07:04:40.282Z,6044
2019-03-29T07:05:40.969Z,6084
2019-03-29T07:06:41.665Z,6116
2019-03-29T07:07:44.518Z,6128
2019-03-29T07:08:43.039Z,6168
2019-03-29T07:09:43.726Z,6204
2019-03-29T07:10:44.414Z,6232
2019-03-29T07:11:45.104Z,6252
2019-03-29T07:12:45.802Z,6280
2019-03-29T07:13:56.599Z,6320
2019-03-29T07:14:48.139Z,6364
2019-03-29T07:15:48.798Z,6412
2019-03-29T07:16:49.490Z,6448
2019-03-29T07:17:50.175Z,6480
2019-03-29T07:18:50.867Z,6484
2019-03-29T07:19:51.556Z,6504
2019-03-29T07:20:52.246Z,6528
2019-03-29T07:21:52.932Z,6588
2019-03-29T07:22:53.619Z,6640
2019-03-29T07:23:54.311Z,6676
2019-03-29T07:24:55.008Z,6728
2019-03-29T07:25:56.599Z,6780
2019-03-29T07:26:56.379Z,6820
2019-03-29T07:27:57.074Z,6864
2019-03-29T07:28:57.763Z,6900
2019-03-29T07:29:58.456Z,6936
2019-03-29T07:30:59.160Z,6976
2019-03-29T07:31:59.844Z,7008
2019-03-29T07:33:00.534Z,7056
2019-03-29T07:34:01.229Z,7120
2019-03-29T07:35:01.918Z,7172
2019-03-29T07:36:02.612Z,7200
2019-03-29T07:37:05.837Z,7224
2019-03-29T07:38:03.990Z,7260
2019-03-29T07:39:04.684Z,7304
2019-03-29T07:40:05.376Z,7452
2019-03-29T07:41:06.066Z,7564
2019-03-29T07:42:06.756Z,7700
2019-03-29T07:43:07.449Z,7984
2019-03-29T07:44:08.147Z,7992
2019-03-29T07:45:10.405Z,9180
2019-03-29T07:46:09.526Z,10220
2019-03-29T07:47:10.229Z,10544
2019-03-29T07:48:10.917Z,12364
2019-03-29T07:49:11.611Z,9656
2019-03-29T07:50:12.302Z,13704
2019-03-29T07:51:13.002Z,9516
2019-03-29T07:52:13.728Z,8072
2019-03-29T07:53:14.420Z,7964
2019-03-29T07:54:15.117Z,8384
2019-03-29T07:55:15.814Z,12868
2019-03-29T07:56:16.501Z,22720
2019-03-29T07:57:17.195Z,24864
2019-03-29T07:58:17.895Z,24288
2019-03-29T07:59:18.582Z,26496
2019-03-29T08:00:20.531Z,30176
2019-03-29T08:01:19.964Z,36224
2019-03-29T08:02:20.658Z,48416
2019-03-29T08:03:22.631Z,58784
2019-03-29T08:04:23.749Z,49248
2019-03-29T08:05:22.738Z,42688
2019-03-29T08:06:23.441Z,49728
2019-03-29T08:07:27.393Z,58464
2019-03-29T08:08:31.845Z,58560
2019-03-29T08:09:26.305Z,59936
2019-03-29T08:10:30.960Z,43488
2019-03-29T08:11:28.459Z,34400
2019-03-29T08:12:28.587Z,40448
2019-03-29T08:13:29.253Z,32864
2019-03-29T08:14:29.944Z,33664
2019-03-29T08:15:30.655Z,34880
2019-03-29T08:16:31.332Z,37120
2019-03-29T08:17:32.026Z,36384
2019-03-29T08:18:32.718Z,48992
2019-03-29T08:19:33.415Z,39456
2019-03-29T08:20:40.579Z,31552
2019-03-29T08:21:35.762Z,37536
2019-03-29T08:22:36.460Z,37472
2019-03-29T08:23:37.155Z,38432
2019-03-29T08:24:37.857Z,38272
2019-03-29T08:25:38.542Z,37248
2019-03-29T08:26:39.245Z,40000
2019-03-29T08:27:39.935Z,45888
2019-03-29T08:28:40.632Z,49984
2019-03-29T08:29:41.328Z,51200
2019-03-29T08:30:42.020Z,52224
2019-03-29T08:31:42.715Z,50080
2019-03-29T08:32:43.409Z,45152
2019-03-29T08:33:44.505Z,42752
2019-03-29T08:34:45.141Z,45856
2019-03-29T08:35:45.820Z,49536
2019-03-29T08:36:46.513Z,51776
2019-03-29T08:37:47.217Z,46432
2019-03-29T08:38:47.913Z,41984
2019-03-29T08:39:48.610Z,46848
2019-03-29T08:40:49.312Z,52288
2019-03-29T08:41:59.899Z,48288
2019-03-29T08:42:50.703Z,40096
2019-03-29T08:43:51.404Z,42720
2019-03-29T08:44:52.103Z,50272
2019-03-29T08:45:52.795Z,48992
2019-03-29T08:46:53.514Z,42688
2019-03-29T08:47:54.175Z,41248
2019-03-29T08:48:54.873Z,42816
2019-03-29T08:49:55.570Z,43488
2019-03-29T08:50:56.262Z,44576
2019-03-29T08:51:56.957Z,45472
2019-03-29T08:52:57.655Z,47104
2019-03-29T08:53:58.353Z,51776
2019-03-29T08:54:59.046Z,52384
2019-03-29T08:55:59.747Z,47456
2019-03-29T08:57:00.439Z,46336
2019-03-29T08:58:01.142Z,48544
2019-03-29T08:59:01.829Z,46848
2019-03-29T09:00:02.524Z,42688
2019-03-29T09:01:03.223Z,42016
2019-03-29T09:02:03.948Z,47296
2019-03-29T09:03:04.621Z,56384
2019-03-29T09:04:06.062Z,60544
2019-03-29T09:05:06.008Z,56224
2019-03-29T09:06:06.709Z,48576
2019-03-29T09:07:07.403Z,41856
2019-03-29T09:08:08.097Z,44256
2019-03-29T09:09:11.856Z,51712
2019-03-29T09:10:09.489Z,54976
2019-03-29T09:11:10.181Z,54112
2019-03-29T09:12:14.698Z,52096
2019-03-29T09:13:11.582Z,50944
2019-03-29T09:14:12.279Z,51552
2019-03-29T09:15:12.969Z,52928
2019-03-29T09:16:13.678Z,53600
2019-03-29T09:17:14.361Z,59552
2019-03-29T09:18:15.060Z,66624
2019-03-29T09:19:15.760Z,67520
2019-03-29T09:20:16.452Z,61408
2019-03-29T09:21:17.159Z,58112
2019-03-29T09:22:17.994Z,62208
2019-03-29T09:23:18.704Z,59552
2019-03-29T09:24:22.146Z,49504
2019-03-29T09:25:21.185Z,44800
2019-03-29T09:26:20.778Z,52352
2019-03-29T09:27:21.474Z,63360
2019-03-29T09:28:22.178Z,66752
2019-03-29T09:29:22.870Z,63168
2019-03-29T09:30:23.565Z,61280
2019-03-29T09:31:24.267Z,58944
2019-03-29T09:32:24.960Z,61088
2019-03-29T09:33:25.656Z,61760
2019-03-29T09:34:28.822Z,59712
2019-03-29T09:35:27.053Z,57568
2019-03-29T09:36:27.761Z,59712
2019-03-29T09:37:28.452Z,64640
2019-03-29T09:38:29.142Z,66304
2019-03-29T09:39:29.845Z,62208
2019-03-29T09:40:30.546Z,57024
2019-03-29T09:41:31.245Z,56384
2019-03-29T09:42:31.937Z,59104
2019-03-29T09:43:32.643Z,62080
2019-03-29T09:44:33.331Z,59136
2019-03-29T09:45:34.032Z,55744
2019-03-29T09:46:34.729Z,57920
2019-03-29T09:47:40.101Z,63328
2019-03-29T09:48:36.129Z,68000
2019-03-29T09:49:36.830Z,69408
2019-03-29T09:50:37.524Z,66720
2019-03-29T09:51:38.224Z,61088
2019-03-29T09:52:38.917Z,58464
2019-03-29T09:53:41.316Z,61920
2019-03-29T09:54:40.336Z,65856
2019-03-29T09:55:41.034Z,65728
2019-03-29T09:56:41.704Z,62272
2019-03-29T09:57:42.409Z,59584
2019-03-29T09:58:45.054Z,59040
2019-03-29T09:59:43.805Z,60352
2019-03-29T10:00:44.497Z,62304
2019-03-29T10:01:45.199Z,60480
2019-03-29T10:02:45.869Z,60864
2019-03-29T10:03:46.640Z,65824
2019-03-29T10:04:47.264Z,68448
2019-03-29T10:05:47.955Z,64768
2019-03-29T10:06:48.656Z,58240
2019-03-29T10:07:49.361Z,54816
2019-03-29T10:08:53.162Z,56576
2019-03-29T10:09:50.749Z,62912
2019-03-29T10:10:51.461Z,68448
2019-03-29T10:11:52.147Z,71328
2019-03-29T10:12:52.849Z,67872
2019-03-29T10:13:53.554Z,65088
2019-03-29T10:14:54.248Z,64032
2019-03-29T10:15:54.944Z,69728
2019-03-29T10:16:55.642Z,71904
2019-03-29T10:17:56.347Z,66144
2019-03-29T10:18:57.040Z,58912
2019-03-29T10:19:57.743Z,57792
2019-03-29T10:20:58.439Z,64416
2019-03-29T10:21:59.134Z,75136
2019-03-29T10:22:59.979Z,78432
2019-03-29T10:24:00.761Z,69152
2019-03-29T10:25:02.566Z,57152
2019-03-29T10:26:02.159Z,54656
2019-03-29T10:27:02.857Z,60864
2019-03-29T10:28:03.560Z,68832
2019-03-29T10:29:04.252Z,73088
2019-03-29T10:30:04.973Z,70336
2019-03-29T10:31:05.713Z,65984
2019-03-29T10:32:09.434Z,62752
2019-03-29T10:33:07.120Z,63648
2019-03-29T10:34:07.809Z,66784
2019-03-29T10:35:08.506Z,69024
2019-03-29T10:36:09.205Z,68672
2019-03-29T10:37:09.902Z,64992
2019-03-29T10:38:10.603Z,60896
2019-03-29T10:39:11.305Z,56128
2019-03-29T10:40:12.014Z,56768
2019-03-29T10:41:12.715Z,59040
2019-03-29T10:42:13.415Z,63712
2019-03-29T10:43:14.116Z,67744
2019-03-29T10:44:14.809Z,69536
2019-03-29T10:45:15.509Z,66624
2019-03-29T10:46:16.212Z,65248
2019-03-29T10:47:16.916Z,63616
2019-03-29T10:48:17.616Z,62784
2019-03-29T10:49:18.317Z,60768
2019-03-29T10:50:19.018Z,60224
2019-03-29T10:51:19.719Z,61504
2019-03-29T10:52:20.418Z,63456
2019-03-29T10:53:21.124Z,59680
2019-03-29T10:54:21.826Z,55840
2019-03-29T10:55:22.522Z,58624
2019-03-29T10:56:34.059Z,69664
2019-03-29T10:57:23.923Z,75616
2019-03-29T10:58:24.619Z,72480
2019-03-29T10:59:27.594Z,64576
2019-03-29T11:00:26.021Z,62880
2019-03-29T11:01:26.726Z,65600
2019-03-29T11:02:27.431Z,63584
2019-03-29T11:03:28.883Z,54688
2019-03-29T11:04:31.698Z,49440
2019-03-29T11:05:29.538Z,52320
2019-03-29T11:06:30.242Z,58080
2019-03-29T11:07:30.936Z,59360
2019-03-29T11:08:31.638Z,54336
2019-03-29T11:09:32.340Z,54240
2019-03-29T11:10:33.044Z,60224
2019-03-29T11:11:33.745Z,64992
2019-03-29T11:12:34.449Z,63648
2019-03-29T11:13:35.147Z,57536
2019-03-29T11:14:35.851Z,53664
2019-03-29T11:15:36.565Z,56736
2019-03-29T11:16:37.261Z,61952
2019-03-29T11:17:37.959Z,67072
2019-03-29T11:18:38.660Z,66336
2019-03-29T11:19:39.361Z,60704
2019-03-29T11:20:40.062Z,60064
2019-03-29T11:21:40.764Z,65920
2019-03-29T11:22:41.467Z,71936
2019-03-29T11:23:42.178Z,71264
2019-03-29T11:24:42.881Z,67232
2019-03-29T11:25:43.585Z,65472
2019-03-29T11:26:44.288Z,70464
2019-03-29T11:27:44.992Z,78016
2019-03-29T11:28:45.706Z,80064
2019-03-29T11:29:46.390Z,75680
2019-03-29T11:30:47.095Z,72672
2019-03-29T11:31:47.808Z,69600
2019-03-29T11:32:48.510Z,65568
2019-03-29T11:33:49.213Z,63360
2019-03-29T11:34:49.909Z,65024
2019-03-29T11:35:50.614Z,68000
2019-03-29T11:36:52.827Z,72736
2019-03-29T11:37:52.015Z,76704
2019-03-29T11:38:52.715Z,76352
2019-03-29T11:39:53.423Z,71744
2019-03-29T11:40:54.124Z,67872
2019-03-29T11:41:54.827Z,65792
2019-03-29T11:42:55.538Z,65056
2019-03-29T11:43:56.214Z,66560
2019-03-29T11:44:56.919Z,66432
2019-03-29T11:45:57.618Z,63936
2019-03-29T11:46:58.357Z,63808
2019-03-29T11:48:08.179Z,64896
2019-03-29T11:48:59.756Z,68416
2019-03-29T11:50:00.462Z,74144
2019-03-29T11:51:01.164Z,76384
2019-03-29T11:52:01.870Z,74528
2019-03-29T11:53:02.564Z,69760
2019-03-29T11:54:03.268Z,66848
2019-03-29T11:55:03.970Z,67200
2019-03-29T11:56:04.646Z,71840
2019-03-29T11:57:05.349Z,76288
2019-03-29T11:58:06.051Z,78272
2019-03-29T11:59:06.760Z,79328
2019-03-29T12:00:07.461Z,78240
2019-03-29T12:01:08.162Z,78688
2019-03-29T12:02:08.863Z,75392
2019-03-29T12:03:09.877Z,71104
2019-03-29T12:04:10.268Z,67584
2019-03-29T12:05:10.979Z,69024
2019-03-29T12:06:11.684Z,65696
2019-03-29T12:07:12.522Z,67424
2019-03-29T12:08:13.237Z,64544
2019-03-29T12:09:13.943Z,61984
2019-03-29T12:10:14.645Z,64256
2019-03-29T12:11:15.350Z,70688
2019-03-29T12:12:16.057Z,76992
2019-03-29T12:13:16.760Z,74400
2019-03-29T12:14:17.457Z,66432
2019-03-29T12:15:18.160Z,60832
2019-03-29T12:16:18.867Z,61504
2019-03-29T12:17:19.576Z,65856
2019-03-29T12:18:20.273Z,68320
2019-03-29T12:19:20.976Z,64832
2019-03-29T12:20:21.683Z,59008
2019-03-29T12:21:22.380Z,53600
2019-03-29T12:22:23.086Z,48352
2019-03-29T12:23:23.796Z,46112
2019-03-29T12:24:24.501Z,51456
2019-03-29T12:25:25.201Z,59840
2019-03-29T12:26:25.910Z,64704
2019-03-29T12:27:26.610Z,64384
2019-03-29T12:28:27.318Z,60896
2019-03-29T12:29:28.015Z,57472
2019-03-29T12:30:31.812Z,56416
2019-03-29T12:31:29.423Z,58112
2019-03-29T12:32:30.126Z,60096
2019-03-29T12:33:30.820Z,65504
2019-03-29T12:34:31.527Z,71168
2019-03-29T12:35:32.240Z,70368
2019-03-29T12:36:32.954Z,64800
2019-03-29T12:37:33.644Z,65184
2019-03-29T12:38:34.355Z,71968
2019-03-29T12:39:35.062Z,74752
2019-03-29T12:40:35.768Z,72320
2019-03-29T12:41:36.473Z,67008
2019-03-29T12:42:37.176Z,65696
2019-03-29T12:43:37.882Z,65056
2019-03-29T12:44:38.586Z,62240
2019-03-29T12:45:39.296Z,61184
2019-03-29T12:46:39.993Z,64480
2019-03-29T12:47:40.703Z,68160
2019-03-29T12:48:41.408Z,69888
2019-03-29T12:49:42.120Z,68576
2019-03-29T12:50:42.812Z,67136
2019-03-29T12:51:46.470Z,63296
2019-03-29T12:52:44.235Z,56224
2019-03-29T12:53:44.940Z,43808
2019-03-29T12:54:45.692Z,34144
2019-03-29T12:55:46.382Z,27040
2019-03-29T12:56:47.043Z,26528
2019-03-29T12:57:47.745Z,31488
2019-03-29T12:58:48.454Z,28800
2019-03-29T12:59:49.155Z,21600
2019-03-29T13:00:49.865Z,17820
2019-03-29T13:01:50.563Z,19680
2019-03-29T13:02:51.313Z,26272
2019-03-29T13:03:51.977Z,36096
2019-03-29T13:04:52.681Z,40672
2019-03-29T13:05:53.382Z,40768
2019-03-29T13:06:54.088Z,34720
2019-03-29T13:07:54.800Z,33536
2019-03-29T13:08:55.495Z,30144
2019-03-29T13:09:56.200Z,25568
2019-03-29T13:10:56.903Z,26112
2019-03-29T13:11:57.608Z,29440
2019-03-29T13:13:00.628Z,28960
2019-03-29T13:14:09.463Z,27936
2019-03-29T13:14:59.720Z,23936
2019-03-29T13:16:00.421Z,21824
2019-03-29T13:17:02.835Z,20512
2019-03-29T13:18:01.838Z,27616
2019-03-29T13:19:02.594Z,34208
2019-03-29T13:20:03.304Z,31008
2019-03-29T13:21:04.004Z,24800
2019-03-29T13:22:04.711Z,21824
2019-03-29T13:23:05.423Z,19392
2019-03-29T13:24:06.116Z,20640
2019-03-29T13:25:07.618Z,27808
2019-03-29T13:26:07.570Z,33632
2019-03-29T13:27:08.220Z,26656
2019-03-29T13:28:08.924Z,25536
2019-03-29T13:29:09.624Z,31232
2019-03-29T13:30:10.368Z,31200
2019-03-29T13:31:11.003Z,27776
2019-03-29T13:32:11.706Z,25056
2019-03-29T13:33:12.733Z,22816
2019-03-29T13:34:13.346Z,25344
2019-03-29T13:35:14.047Z,34208
2019-03-29T13:36:14.760Z,32512
2019-03-29T13:37:15.462Z,26656
2019-03-29T13:38:16.163Z,27360
2019-03-29T13:39:16.868Z,32384
2019-03-29T13:40:17.567Z,29536
2019-03-29T13:41:18.319Z,23328
2019-03-29T13:42:19.024Z,29824
2019-03-29T13:43:19.727Z,26464
2019-03-29T13:44:24.098Z,22752
2019-03-29T13:45:21.129Z,22848
2019-03-29T13:46:22.156Z,25376